sensor_id;sensor_type;location;lat;lon;timestamp;P1;durP1;ratioP1;P2;durP2;ratioP2
72422;SDS011;60413;55.658;37.498;2022-12-29T00:02:19;3.72;;;1.63;;
72422;SDS011;60413;55.658;37.498;2022-12-29T00:04:45;6.75;;;2.05;;
72422;SDS011;60413;55.658;37.498;2022-12-29T00:07:11;6.47;;;1.60;;
72422;SDS011;60413;55.658;37.498;2022-12-29T00:09:37;5.10;;;1.13;;
72422;SDS011;60413;55.658;37.498;2022-12-29T00:12:06;3.13;;;0.82;;
72422;SDS011;60413;55.658;37.498;2022-12-29T00:14:32;8.65;;;1.40;;
72422;SDS011;60413;55.658;37.498;2022-12-29T00:17:16;5.97;;;1.35;;
72422;SDS011;60413;55.658;37.498;2022-12-29T00:19:42;4.97;;;1.17;;
72422;SDS011;60413;55.658;37.498;2022-12-29T00:22:27;2.08;;;1.10;;
72422;SDS011;60413;55.658;37.498;2022-12-29T00:25:11;3.70;;;1.58;;
72422;SDS011;60413;55.658;37.498;2022-12-29T00:27:57;4.97;;;1.38;;
72422;SDS011;60413;55.658;37.498;2022-12-29T00:31:03;7.68;;;1.40;;
72422;SDS011;60413;55.658;37.498;2022-12-29T00:33:55;3.92;;;1.50;;
72422;SDS011;60413;55.658;37.498;2022-12-29T00:36:40;6.50;;;1.30;;
72422;SDS011;60413;55.658;37.498;2022-12-29T00:39:09;5.10;;;2.70;;
72422;SDS011;60413;55.658;37.498;2022-12-29T00:42:04;6.50;;;2.05;;
72422;SDS011;60413;55.658;37.498;2022-12-29T00:45:03;7.90;;;1.60;;
72422;SDS011;60413;55.658;37.498;2022-12-29T00:47:29;6.35;;;1.58;;
72422;SDS011;60413;55.658;37.498;2022-12-29T00:49:55;5.60;;;1.52;;
72422;SDS011;60413;55.658;37.498;2022-12-29T00:52:21;7.55;;;1.90;;
72422;SDS011;60413;55.658;37.498;2022-12-29T00:54:46;9.82;;;1.95;;
72422;SDS011;60413;55.658;37.498;2022-12-29T00:57:12;3.22;;;1.30;;
72422;SDS011;60413;55.658;37.498;2022-12-29T00:59:40;9.73;;;1.90;;
72422;SDS011;60413;55.658;37.498;2022-12-29T01:02:07;5.35;;;1.55;;
72422;SDS011;60413;55.658;37.498;2022-12-29T01:04:34;6.25;;;1.60;;
72422;SDS011;60413;55.658;37.498;2022-12-29T01:06:59;9.88;;;2.03;;
72422;SDS011;60413;55.658;37.498;2022-12-29T01:09:26;6.55;;;1.55;;
72422;SDS011;60413;55.658;37.498;2022-12-29T01:12:11;6.55;;;1.17;;
72422;SDS011;60413;55.658;37.498;2022-12-29T01:14:37;10.68;;;1.42;;
72422;SDS011;60413;55.658;37.498;2022-12-29T01:17:04;4.95;;;1.70;;
72422;SDS011;60413;55.658;37.498;2022-12-29T01:19:31;4.40;;;1.30;;
72422;SDS011;60413;55.658;37.498;2022-12-29T01:21:57;6.38;;;2.08;;
72422;SDS011;60413;55.658;37.498;2022-12-29T01:24:23;6.15;;;1.33;;
72422;SDS011;60413;55.658;37.498;2022-12-29T01:26:51;7.72;;;1.50;;
72422;SDS011;60413;55.658;37.498;2022-12-29T01:29:17;7.45;;;1.95;;
72422;SDS011;60413;55.658;37.498;2022-12-29T01:31:44;10.05;;;2.03;;
72422;SDS011;60413;55.658;37.498;2022-12-29T01:34:10;6.97;;;1.80;;
72422;SDS011;60413;55.658;37.498;2022-12-29T01:36:37;5.13;;;1.75;;
72422;SDS011;60413;55.658;37.498;2022-12-29T01:39:03;6.70;;;1.40;;
72422;SDS011;60413;55.658;37.498;2022-12-29T01:41:29;6.78;;;2.15;;
72422;SDS011;60413;55.658;37.498;2022-12-29T01:43:59;6.72;;;1.92;;
72422;SDS011;60413;55.658;37.498;2022-12-29T01:49:10;5.05;;;1.88;;
72422;SDS011;60413;55.658;37.498;2022-12-29T01:52:02;5.57;;;1.83;;
72422;SDS011;60413;55.658;37.498;2022-12-29T01:56:58;6.90;;;1.67;;
72422;SDS011;60413;55.658;37.498;2022-12-29T01:59:32;9.80;;;2.67;;
72422;SDS011;60413;55.658;37.498;2022-12-29T02:02:04;6.25;;;2.22;;
72422;SDS011;60413;55.658;37.498;2022-12-29T02:04:31;7.65;;;2.17;;
72422;SDS011;60413;55.658;37.498;2022-12-29T02:07:06;7.45;;;1.98;;
72422;SDS011;60413;55.658;37.498;2022-12-29T02:09:36;7.75;;;2.03;;
72422;SDS011;60413;55.658;37.498;2022-12-29T02:12:02;10.70;;;2.63;;
72422;SDS011;60413;55.658;37.498;2022-12-29T02:14:28;5.88;;;2.10;;
72422;SDS011;60413;55.658;37.498;2022-12-29T02:19:58;9.73;;;2.58;;
72422;SDS011;60413;55.658;37.498;2022-12-29T02:22:33;9.10;;;2.70;;
72422;SDS011;60413;55.658;37.498;2022-12-29T02:39:22;6.97;;;1.98;;
72422;SDS011;60413;55.658;37.498;2022-12-29T02:42:01;5.35;;;2.13;;
72422;SDS011;60413;55.658;37.498;2022-12-29T02:50:31;12.93;;;2.47;;
72422;SDS011;60413;55.658;37.498;2022-12-29T02:53:02;7.75;;;1.90;;
72422;SDS011;60413;55.658;37.498;2022-12-29T02:55:35;5.43;;;1.83;;
72422;SDS011;60413;55.658;37.498;2022-12-29T02:58:16;11.50;;;2.20;;
72422;SDS011;60413;55.658;37.498;2022-12-29T03:09:36;14.88;;;2.70;;
72422;SDS011;60413;55.658;37.498;2022-12-29T03:12:07;11.15;;;2.13;;
72422;SDS011;60413;55.658;37.498;2022-12-29T03:14:39;14.63;;;2.28;;
72422;SDS011;60413;55.658;37.498;2022-12-29T03:17:51;7.68;;;1.92;;
72422;SDS011;60413;55.658;37.498;2022-12-29T03:23:21;9.05;;;2.28;;
72422;SDS011;60413;55.658;37.498;2022-12-29T03:25:54;7.88;;;1.90;;
72422;SDS011;60413;55.658;37.498;2022-12-29T03:30:56;6.40;;;1.83;;
72422;SDS011;60413;55.658;37.498;2022-12-29T03:33:26;5.03;;;2.13;;
72422;SDS011;60413;55.658;37.498;2022-12-29T03:35:58;7.03;;;2.13;;
72422;SDS011;60413;55.658;37.498;2022-12-29T03:38:37;10.20;;;2.33;;
72422;SDS011;60413;55.658;37.498;2022-12-29T03:41:11;4.63;;;1.80;;
72422;SDS011;60413;55.658;37.498;2022-12-29T03:43:42;21.88;;;2.60;;
72422;SDS011;60413;55.658;37.498;2022-12-29T03:46:08;5.28;;;1.40;;
72422;SDS011;60413;55.658;37.498;2022-12-29T03:48:35;8.68;;;2.65;;
72422;SDS011;60413;55.658;37.498;2022-12-29T03:51:02;8.48;;;1.90;;
72422;SDS011;60413;55.658;37.498;2022-12-29T03:53:28;6.55;;;2.05;;
72422;SDS011;60413;55.658;37.498;2022-12-29T03:55:54;9.32;;;1.73;;
72422;SDS011;60413;55.658;37.498;2022-12-29T03:58:22;10.45;;;1.70;;
72422;SDS011;60413;55.658;37.498;2022-12-29T04:00:56;4.65;;;1.40;;
72422;SDS011;60413;55.658;37.498;2022-12-29T04:03:23;7.95;;;2.50;;
72422;SDS011;60413;55.658;37.498;2022-12-29T04:05:50;3.45;;;1.42;;
72422;SDS011;60413;55.658;37.498;2022-12-29T04:08:17;4.78;;;1.75;;
72422;SDS011;60413;55.658;37.498;2022-12-29T04:10:44;11.43;;;2.05;;
72422;SDS011;60413;55.658;37.498;2022-12-29T04:13:12;6.55;;;1.85;;
72422;SDS011;60413;55.658;37.498;2022-12-29T04:15:39;8.40;;;1.73;;
72422;SDS011;60413;55.658;37.498;2022-12-29T04:18:11;7.25;;;2.58;;
72422;SDS011;60413;55.658;37.498;2022-12-29T04:20:43;11.45;;;2.05;;
72422;SDS011;60413;55.658;37.498;2022-12-29T04:23:27;14.63;;;2.15;;
72422;SDS011;60413;55.658;37.498;2022-12-29T04:26:02;6.70;;;2.38;;
72422;SDS011;60413;55.658;37.498;2022-12-29T04:28:34;7.05;;;1.58;;
72422;SDS011;60413;55.658;37.498;2022-12-29T04:31:12;9.73;;;2.38;;
72422;SDS011;60413;55.658;37.498;2022-12-29T04:33:44;9.85;;;2.10;;
72422;SDS011;60413;55.658;37.498;2022-12-29T04:36:13;16.88;;;4.65;;
72422;SDS011;60413;55.658;37.498;2022-12-29T04:38:47;7.97;;;2.15;;
72422;SDS011;60413;55.658;37.498;2022-12-29T04:41:16;3.97;;;1.98;;
72422;SDS011;60413;55.658;37.498;2022-12-29T04:43:43;5.22;;;1.98;;
72422;SDS011;60413;55.658;37.498;2022-12-29T04:46:36;9.15;;;2.28;;
72422;SDS011;60413;55.658;37.498;2022-12-29T04:49:17;7.28;;;2.20;;
72422;SDS011;60413;55.658;37.498;2022-12-29T04:52:01;13.20;;;2.60;;
72422;SDS011;60413;55.658;37.498;2022-12-29T04:54:27;5.32;;;2.15;;
72422;SDS011;60413;55.658;37.498;2022-12-29T04:57:14;6.28;;;2.28;;
72422;SDS011;60413;55.658;37.498;2022-12-29T04:59:42;9.90;;;2.15;;
72422;SDS011;60413;55.658;37.498;2022-12-29T05:02:08;6.60;;;2.25;;
72422;SDS011;60413;55.658;37.498;2022-12-29T05:04:35;6.38;;;1.80;;
72422;SDS011;60413;55.658;37.498;2022-12-29T05:07:01;6.97;;;2.20;;
72422;SDS011;60413;55.658;37.498;2022-12-29T05:09:30;6.28;;;2.20;;
72422;SDS011;60413;55.658;37.498;2022-12-29T05:11:56;7.28;;;2.40;;
72422;SDS011;60413;55.658;37.498;2022-12-29T05:14:22;9.60;;;2.67;;
72422;SDS011;60413;55.658;37.498;2022-12-29T05:16:48;8.52;;;2.42;;
72422;SDS011;60413;55.658;37.498;2022-12-29T05:19:14;11.02;;;2.95;;
72422;SDS011;60413;55.658;37.498;2022-12-29T05:21:43;12.50;;;2.85;;
72422;SDS011;60413;55.658;37.498;2022-12-29T05:24:09;11.00;;;2.85;;
72422;SDS011;60413;55.658;37.498;2022-12-29T05:26:39;10.27;;;2.90;;
72422;SDS011;60413;55.658;37.498;2022-12-29T05:29:35;6.47;;;2.92;;
72422;SDS011;60413;55.658;37.498;2022-12-29T05:32:16;11.30;;;3.38;;
72422;SDS011;60413;55.658;37.498;2022-12-29T05:34:47;9.38;;;3.08;;
72422;SDS011;60413;55.658;37.498;2022-12-29T05:37:16;15.57;;;3.00;;
72422;SDS011;60413;55.658;37.498;2022-12-29T05:39:44;9.32;;;3.20;;
72422;SDS011;60413;55.658;37.498;2022-12-29T05:42:13;17.02;;;2.60;;
72422;SDS011;60413;55.658;37.498;2022-12-29T05:44:55;5.47;;;2.65;;
72422;SDS011;60413;55.658;37.498;2022-12-29T05:47:57;10.98;;;3.20;;
72422;SDS011;60413;55.658;37.498;2022-12-29T05:51:02;9.75;;;3.00;;
72422;SDS011;60413;55.658;37.498;2022-12-29T05:53:47;10.52;;;3.20;;
72422;SDS011;60413;55.658;37.498;2022-12-29T05:56:19;12.20;;;4.00;;
72422;SDS011;60413;55.658;37.498;2022-12-29T05:58:52;9.65;;;3.67;;
72422;SDS011;60413;55.658;37.498;2022-12-29T06:01:20;6.15;;;2.72;;
72422;SDS011;60413;55.658;37.498;2022-12-29T06:03:53;7.32;;;2.90;;
72422;SDS011;60413;55.658;37.498;2022-12-29T06:06:22;8.23;;;3.30;;
72422;SDS011;60413;55.658;37.498;2022-12-29T06:08:49;10.63;;;3.65;;
72422;SDS011;60413;55.658;37.498;2022-12-29T06:11:16;8.32;;;3.75;;
72422;SDS011;60413;55.658;37.498;2022-12-29T06:13:53;35.83;;;6.53;;
72422;SDS011;60413;55.658;37.498;2022-12-29T06:16:29;10.80;;;3.43;;
72422;SDS011;60413;55.658;37.498;2022-12-29T06:19:42;6.60;;;2.33;;
72422;SDS011;60413;55.658;37.498;2022-12-29T06:22:10;10.23;;;2.90;;
72422;SDS011;60413;55.658;37.498;2022-12-29T06:24:41;10.45;;;2.97;;
72422;SDS011;60413;55.658;37.498;2022-12-29T06:27:07;11.65;;;2.67;;
72422;SDS011;60413;55.658;37.498;2022-12-29T06:29:33;10.02;;;3.97;;
72422;SDS011;60413;55.658;37.498;2022-12-29T06:32:01;13.40;;;2.90;;
72422;SDS011;60413;55.658;37.498;2022-12-29T06:34:42;9.77;;;2.92;;
72422;SDS011;60413;55.658;37.498;2022-12-29T06:37:16;9.05;;;2.75;;
72422;SDS011;60413;55.658;37.498;2022-12-29T06:39:54;16.73;;;3.17;;
72422;SDS011;60413;55.658;37.498;2022-12-29T06:43:07;14.55;;;4.18;;
72422;SDS011;60413;55.658;37.498;2022-12-29T06:46:09;10.10;;;3.45;;
72422;SDS011;60413;55.658;37.498;2022-12-29T06:48:44;8.70;;;3.53;;
72422;SDS011;60413;55.658;37.498;2022-12-29T06:51:24;10.57;;;3.90;;
72422;SDS011;60413;55.658;37.498;2022-12-29T06:53:59;13.02;;;4.38;;
72422;SDS011;60413;55.658;37.498;2022-12-29T06:56:54;9.07;;;4.10;;
72422;SDS011;60413;55.658;37.498;2022-12-29T06:59:23;13.07;;;4.07;;
72422;SDS011;60413;55.658;37.498;2022-12-29T07:01:52;17.85;;;3.90;;
72422;SDS011;60413;55.658;37.498;2022-12-29T07:04:18;7.38;;;3.20;;
72422;SDS011;60413;55.658;37.498;2022-12-29T07:06:47;12.77;;;4.55;;
72422;SDS011;60413;55.658;37.498;2022-12-29T07:09:16;10.65;;;3.63;;
72422;SDS011;60413;55.658;37.498;2022-12-29T07:11:42;12.15;;;4.22;;
72422;SDS011;60413;55.658;37.498;2022-12-29T07:14:10;14.77;;;4.85;;
72422;SDS011;60413;55.658;37.498;2022-12-29T07:16:39;6.88;;;3.88;;
72422;SDS011;60413;55.658;37.498;2022-12-29T07:19:05;13.05;;;3.75;;
72422;SDS011;60413;55.658;37.498;2022-12-29T07:21:33;8.68;;;3.65;;
72422;SDS011;60413;55.658;37.498;2022-12-29T07:23:59;14.25;;;4.80;;
72422;SDS011;60413;55.658;37.498;2022-12-29T07:26:25;9.60;;;4.20;;
72422;SDS011;60413;55.658;37.498;2022-12-29T07:28:50;13.50;;;4.25;;
72422;SDS011;60413;55.658;37.498;2022-12-29T07:31:17;17.40;;;3.65;;
72422;SDS011;60413;55.658;37.498;2022-12-29T07:33:46;11.77;;;3.97;;
72422;SDS011;60413;55.658;37.498;2022-12-29T07:36:15;10.50;;;4.68;;
72422;SDS011;60413;55.658;37.498;2022-12-29T07:38:42;7.75;;;3.97;;
72422;SDS011;60413;55.658;37.498;2022-12-29T07:41:09;12.73;;;3.78;;
72422;SDS011;60413;55.658;37.498;2022-12-29T07:43:34;10.02;;;4.35;;
72422;SDS011;60413;55.658;37.498;2022-12-29T07:46:23;13.57;;;4.72;;
72422;SDS011;60413;55.658;37.498;2022-12-29T07:48:49;10.23;;;5.20;;
72422;SDS011;60413;55.658;37.498;2022-12-29T07:51:15;17.73;;;5.70;;
72422;SDS011;60413;55.658;37.498;2022-12-29T07:53:41;16.45;;;6.65;;
72422;SDS011;60413;55.658;37.498;2022-12-29T07:56:07;14.70;;;5.20;;
72422;SDS011;60413;55.658;37.498;2022-12-29T07:58:32;18.25;;;5.70;;
72422;SDS011;60413;55.658;37.498;2022-12-29T08:01:13;18.17;;;6.47;;
72422;SDS011;60413;55.658;37.498;2022-12-29T08:03:42;16.30;;;7.63;;
72422;SDS011;60413;55.658;37.498;2022-12-29T08:06:12;18.30;;;7.43;;
72422;SDS011;60413;55.658;37.498;2022-12-29T08:08:38;22.48;;;8.45;;
72422;SDS011;60413;55.658;37.498;2022-12-29T08:11:03;21.45;;;8.45;;
72422;SDS011;60413;55.658;37.498;2022-12-29T08:13:29;20.77;;;8.18;;
72422;SDS011;60413;55.658;37.498;2022-12-29T08:15:57;19.23;;;8.07;;
72422;SDS011;60413;55.658;37.498;2022-12-29T08:18:24;19.40;;;8.82;;
72422;SDS011;60413;55.658;37.498;2022-12-29T08:20:50;27.00;;;9.20;;
72422;SDS011;60413;55.658;37.498;2022-12-29T08:23:16;26.45;;;9.15;;
72422;SDS011;60413;55.658;37.498;2022-12-29T08:25:42;17.25;;;8.00;;
72422;SDS011;60413;55.658;37.498;2022-12-29T08:28:08;24.20;;;9.25;;
72422;SDS011;60413;55.658;37.498;2022-12-29T08:30:35;18.17;;;8.07;;
72422;SDS011;60413;55.658;37.498;2022-12-29T08:33:03;17.77;;;7.05;;
72422;SDS011;60413;55.658;37.498;2022-12-29T08:35:33;19.52;;;7.07;;
72422;SDS011;60413;55.658;37.498;2022-12-29T08:38:02;18.92;;;6.47;;
72422;SDS011;60413;55.658;37.498;2022-12-29T08:40:33;15.07;;;5.70;;
72422;SDS011;60413;55.658;37.498;2022-12-29T08:42:59;30.70;;;10.40;;
72422;SDS011;60413;55.658;37.498;2022-12-29T08:45:25;17.35;;;6.85;;
72422;SDS011;60413;55.658;37.498;2022-12-29T08:47:51;16.55;;;6.78;;
72422;SDS011;60413;55.658;37.498;2022-12-29T08:50:26;17.17;;;6.05;;
72422;SDS011;60413;55.658;37.498;2022-12-29T08:53:10;13.38;;;5.90;;
72422;SDS011;60413;55.658;37.498;2022-12-29T08:55:46;17.35;;;6.22;;
72422;SDS011;60413;55.658;37.498;2022-12-29T08:58:22;11.05;;;5.10;;
72422;SDS011;60413;55.658;37.498;2022-12-29T09:01:01;15.77;;;6.28;;
72422;SDS011;60413;55.658;37.498;2022-12-29T09:03:27;11.77;;;4.43;;
72422;SDS011;60413;55.658;37.498;2022-12-29T09:05:54;16.23;;;5.80;;
72422;SDS011;60413;55.658;37.498;2022-12-29T09:08:23;11.93;;;6.20;;
72422;SDS011;60413;55.658;37.498;2022-12-29T09:10:55;13.68;;;5.47;;
72422;SDS011;60413;55.658;37.498;2022-12-29T09:13:33;15.68;;;5.40;;
72422;SDS011;60413;55.658;37.498;2022-12-29T09:16:02;19.90;;;5.60;;
72422;SDS011;60413;55.658;37.498;2022-12-29T09:18:31;14.50;;;5.70;;
72422;SDS011;60413;55.658;37.498;2022-12-29T09:20:58;11.50;;;4.78;;
72422;SDS011;60413;55.658;37.498;2022-12-29T09:23:28;12.10;;;5.40;;
72422;SDS011;60413;55.658;37.498;2022-12-29T09:25:57;16.95;;;5.40;;
72422;SDS011;60413;55.658;37.498;2022-12-29T09:28:23;18.92;;;5.90;;
72422;SDS011;60413;55.658;37.498;2022-12-29T09:30:49;17.05;;;6.05;;
72422;SDS011;60413;55.658;37.498;2022-12-29T09:33:15;18.13;;;6.15;;
72422;SDS011;60413;55.658;37.498;2022-12-29T09:35:45;16.85;;;6.78;;
72422;SDS011;60413;55.658;37.498;2022-12-29T09:38:25;14.60;;;6.60;;
72422;SDS011;60413;55.658;37.498;2022-12-29T09:40:52;13.40;;;5.90;;
72422;SDS011;60413;55.658;37.498;2022-12-29T09:48:40;16.35;;;5.28;;
72422;SDS011;60413;55.658;37.498;2022-12-29T09:51:13;12.70;;;5.13;;
72422;SDS011;60413;55.658;37.498;2022-12-29T09:53:43;15.15;;;5.70;;
72422;SDS011;60413;55.658;37.498;2022-12-29T09:56:17;17.00;;;5.40;;
72422;SDS011;60413;55.658;37.498;2022-12-29T10:01:44;16.92;;;5.60;;
72422;SDS011;60413;55.658;37.498;2022-12-29T10:04:17;12.02;;;5.00;;
72422;SDS011;60413;55.658;37.498;2022-12-29T10:06:57;9.75;;;4.53;;
72422;SDS011;60413;55.658;37.498;2022-12-29T10:12:16;13.77;;;4.55;;
72422;SDS011;60413;55.658;37.498;2022-12-29T10:17:54;12.43;;;5.00;;
72422;SDS011;60413;55.658;37.498;2022-12-29T10:20:42;11.20;;;5.07;;
72422;SDS011;60413;55.658;37.498;2022-12-29T10:23:20;13.65;;;5.32;;
72422;SDS011;60413;55.658;37.498;2022-12-29T10:25:55;18.05;;;5.85;;
72422;SDS011;60413;55.658;37.498;2022-12-29T10:28:36;16.08;;;5.25;;
72422;SDS011;60413;55.658;37.498;2022-12-29T10:31:14;11.13;;;5.38;;
72422;SDS011;60413;55.658;37.498;2022-12-29T10:33:46;10.18;;;4.60;;
72422;SDS011;60413;55.658;37.498;2022-12-29T10:36:40;12.90;;;4.95;;
72422;SDS011;60413;55.658;37.498;2022-12-29T10:39:23;12.27;;;5.93;;
72422;SDS011;60413;55.658;37.498;2022-12-29T10:44:38;9.32;;;4.57;;
72422;SDS011;60413;55.658;37.498;2022-12-29T10:47:15;9.68;;;4.30;;
72422;SDS011;60413;55.658;37.498;2022-12-29T10:49:45;12.80;;;4.57;;
72422;SDS011;60413;55.658;37.498;2022-12-29T10:52:13;7.88;;;4.22;;
72422;SDS011;60413;55.658;37.498;2022-12-29T10:54:55;10.73;;;4.60;;
72422;SDS011;60413;55.658;37.498;2022-12-29T10:57:27;7.55;;;3.83;;
72422;SDS011;60413;55.658;37.498;2022-12-29T11:00:20;9.43;;;4.05;;
72422;SDS011;60413;55.658;37.498;2022-12-29T11:06:14;14.43;;;4.63;;
72422;SDS011;60413;55.658;37.498;2022-12-29T11:08:57;12.25;;;4.30;;
72422;SDS011;60413;55.658;37.498;2022-12-29T11:11:34;10.13;;;4.20;;
72422;SDS011;60413;55.658;37.498;2022-12-29T11:16:39;19.83;;;7.70;;
72422;SDS011;60413;55.658;37.498;2022-12-29T11:19:28;13.02;;;6.28;;
72422;SDS011;60413;55.658;37.498;2022-12-29T11:22:30;15.23;;;5.57;;
72422;SDS011;60413;55.658;37.498;2022-12-29T11:25:05;15.55;;;5.03;;
72422;SDS011;60413;55.658;37.498;2022-12-29T11:27:36;19.58;;;5.70;;
72422;SDS011;60413;55.658;37.498;2022-12-29T11:30:02;12.05;;;5.43;;
72422;SDS011;60413;55.658;37.498;2022-12-29T11:32:56;14.50;;;6.15;;
72422;SDS011;60413;55.658;37.498;2022-12-29T11:35:29;16.13;;;5.80;;
72422;SDS011;60413;55.658;37.498;2022-12-29T11:38:20;17.80;;;7.65;;
72422;SDS011;60413;55.658;37.498;2022-12-29T11:40:49;14.02;;;5.88;;
72422;SDS011;60413;55.658;37.498;2022-12-29T11:43:34;16.15;;;5.95;;
72422;SDS011;60413;55.658;37.498;2022-12-29T11:46:18;16.83;;;6.03;;
72422;SDS011;60413;55.658;37.498;2022-12-29T11:48:49;14.40;;;5.97;;
72422;SDS011;60413;55.658;37.498;2022-12-29T11:51:22;14.05;;;6.32;;
72422;SDS011;60413;55.658;37.498;2022-12-29T11:53:56;15.05;;;6.03;;
72422;SDS011;60413;55.658;37.498;2022-12-29T11:56:37;13.85;;;4.95;;
72422;SDS011;60413;55.658;37.498;2022-12-29T12:02:00;17.65;;;6.82;;
72422;SDS011;60413;55.658;37.498;2022-12-29T12:04:45;12.73;;;5.00;;
72422;SDS011;60413;55.658;37.498;2022-12-29T12:07:22;19.17;;;6.32;;
72422;SDS011;60413;55.658;37.498;2022-12-29T12:10:01;18.98;;;6.35;;
72422;SDS011;60413;55.658;37.498;2022-12-29T12:12:53;19.65;;;6.93;;
72422;SDS011;60413;55.658;37.498;2022-12-29T12:15:44;19.95;;;6.18;;
72422;SDS011;60413;55.658;37.498;2022-12-29T12:18:24;23.48;;;8.15;;
72422;SDS011;60413;55.658;37.498;2022-12-29T12:21:00;17.90;;;6.78;;
72422;SDS011;60413;55.658;37.498;2022-12-29T12:26:36;17.60;;;7.38;;
72422;SDS011;60413;55.658;37.498;2022-12-29T12:29:19;20.90;;;7.93;;
72422;SDS011;60413;55.658;37.498;2022-12-29T12:32:09;19.52;;;6.93;;
72422;SDS011;60413;55.658;37.498;2022-12-29T12:34:54;26.05;;;8.10;;
72422;SDS011;60413;55.658;37.498;2022-12-29T12:37:31;18.33;;;6.90;;
72422;SDS011;60413;55.658;37.498;2022-12-29T12:44:09;26.20;;;8.52;;
72422;SDS011;60413;55.658;37.498;2022-12-29T13:03:23;25.83;;;9.10;;
72422;SDS011;60413;55.658;37.498;2022-12-29T13:12:19;30.55;;;9.35;;
72422;SDS011;60413;55.658;37.498;2022-12-29T13:15:21;18.63;;;7.18;;
72422;SDS011;60413;55.658;37.498;2022-12-29T13:33:11;31.77;;;10.15;;
72422;SDS011;60413;55.658;37.498;2022-12-29T13:39:01;34.05;;;9.25;;
72422;SDS011;60413;55.658;37.498;2022-12-29T13:42:05;23.70;;;8.52;;
72422;SDS011;60413;55.658;37.498;2022-12-29T13:44:45;26.00;;;8.02;;
72422;SDS011;60413;55.658;37.498;2022-12-29T13:50:59;28.38;;;9.02;;
72422;SDS011;60413;55.658;37.498;2022-12-29T13:59:40;35.13;;;12.90;;
72422;SDS011;60413;55.658;37.498;2022-12-29T14:08:53;28.08;;;9.05;;
72422;SDS011;60413;55.658;37.498;2022-12-29T14:11:37;26.15;;;9.23;;
72422;SDS011;60413;55.658;37.498;2022-12-29T14:14:23;32.20;;;10.05;;
72422;SDS011;60413;55.658;37.498;2022-12-29T14:17:16;36.90;;;10.57;;
72422;SDS011;60413;55.658;37.498;2022-12-29T14:34:47;54.67;;;13.00;;
72422;SDS011;60413;55.658;37.498;2022-12-29T14:37:32;28.40;;;8.18;;
72422;SDS011;60413;55.658;37.498;2022-12-29T14:43:20;45.22;;;12.93;;
72422;SDS011;60413;55.658;37.498;2022-12-29T14:48:52;37.45;;;12.05;;
72422;SDS011;60413;55.658;37.498;2022-12-29T14:51:34;48.17;;;13.43;;
72422;SDS011;60413;55.658;37.498;2022-12-29T14:57:13;41.10;;;11.57;;
72422;SDS011;60413;55.658;37.498;2022-12-29T15:09:50;38.85;;;11.90;;
72422;SDS011;60413;55.658;37.498;2022-12-29T15:13:23;49.40;;;12.50;;
72422;SDS011;60413;55.658;37.498;2022-12-29T15:20:39;38.33;;;11.55;;
72422;SDS011;60413;55.658;37.498;2022-12-29T15:23:25;50.03;;;12.80;;
72422;SDS011;60413;55.658;37.498;2022-12-29T15:25:59;45.17;;;12.02;;
72422;SDS011;60413;55.658;37.498;2022-12-29T15:28:37;41.03;;;10.85;;
72422;SDS011;60413;55.658;37.498;2022-12-29T15:31:23;48.88;;;14.10;;
72422;SDS011;60413;55.658;37.498;2022-12-29T15:33:52;48.30;;;13.35;;
72422;SDS011;60413;55.658;37.498;2022-12-29T15:36:40;49.30;;;12.88;;
72422;SDS011;60413;55.658;37.498;2022-12-29T15:39:27;49.08;;;14.00;;
72422;SDS011;60413;55.658;37.498;2022-12-29T15:41:56;56.33;;;14.65;;
72422;SDS011;60413;55.658;37.498;2022-12-29T15:44:39;51.78;;;13.55;;
72422;SDS011;60413;55.658;37.498;2022-12-29T15:47:20;62.15;;;13.75;;
72422;SDS011;60413;55.658;37.498;2022-12-29T15:49:55;44.13;;;13.90;;
72422;SDS011;60413;55.658;37.498;2022-12-29T15:52:45;40.72;;;14.23;;
72422;SDS011;60413;55.658;37.498;2022-12-29T15:55:25;54.22;;;15.02;;
72422;SDS011;60413;55.658;37.498;2022-12-29T15:58:01;37.92;;;11.70;;
72422;SDS011;60413;55.658;37.498;2022-12-29T16:00:32;50.72;;;14.27;;
72422;SDS011;60413;55.658;37.498;2022-12-29T16:03:02;37.22;;;11.32;;
72422;SDS011;60413;55.658;37.498;2022-12-29T16:05:36;42.30;;;12.38;;
72422;SDS011;60413;55.658;37.498;2022-12-29T16:14:18;65.43;;;15.60;;
72422;SDS011;60413;55.658;37.498;2022-12-29T16:16:51;48.97;;;14.77;;
72422;SDS011;60413;55.658;37.498;2022-12-29T16:19:19;60.03;;;15.70;;
72422;SDS011;60413;55.658;37.498;2022-12-29T16:21:54;51.53;;;14.32;;
72422;SDS011;60413;55.658;37.498;2022-12-29T16:24:23;46.25;;;14.02;;
72422;SDS011;60413;55.658;37.498;2022-12-29T16:29:27;60.38;;;16.58;;
72422;SDS011;60413;55.658;37.498;2022-12-29T16:31:56;62.58;;;15.18;;
72422;SDS011;60413;55.658;37.498;2022-12-29T16:34:32;65.68;;;14.82;;
72422;SDS011;60413;55.658;37.498;2022-12-29T16:37:27;49.03;;;15.10;;
72422;SDS011;60413;55.658;37.498;2022-12-29T16:39:55;52.55;;;14.55;;
72422;SDS011;60413;55.658;37.498;2022-12-29T16:48:19;79.32;;;17.90;;
72422;SDS011;60413;55.658;37.498;2022-12-29T16:50:47;70.82;;;16.58;;
72422;SDS011;60413;55.658;37.498;2022-12-29T16:53:19;56.95;;;14.35;;
72422;SDS011;60413;55.658;37.498;2022-12-29T16:55:55;64.57;;;15.68;;
72422;SDS011;60413;55.658;37.498;2022-12-29T16:58:38;64.47;;;15.70;;
72422;SDS011;60413;55.658;37.498;2022-12-29T17:01:05;60.90;;;16.75;;
72422;SDS011;60413;55.658;37.498;2022-12-29T17:03:33;53.03;;;14.68;;
72422;SDS011;60413;55.658;37.498;2022-12-29T17:06:05;61.15;;;16.85;;
72422;SDS011;60413;55.658;37.498;2022-12-29T17:08:41;39.00;;;11.68;;
72422;SDS011;60413;55.658;37.498;2022-12-29T17:11:14;64.55;;;16.00;;
72422;SDS011;60413;55.658;37.498;2022-12-29T17:14:36;62.78;;;14.82;;
72422;SDS011;60413;55.658;37.498;2022-12-29T17:20:03;55.85;;;15.45;;
72422;SDS011;60413;55.658;37.498;2022-12-29T17:22:41;68.20;;;18.42;;
72422;SDS011;60413;55.658;37.498;2022-12-29T17:25:15;46.83;;;14.30;;
72422;SDS011;60413;55.658;37.498;2022-12-29T17:27:51;61.65;;;17.05;;
72422;SDS011;60413;55.658;37.498;2022-12-29T17:30:25;58.83;;;15.18;;
72422;SDS011;60413;55.658;37.498;2022-12-29T17:32:53;62.50;;;18.08;;
72422;SDS011;60413;55.658;37.498;2022-12-29T17:35:25;52.40;;;14.25;;
72422;SDS011;60413;55.658;37.498;2022-12-29T17:38:01;46.03;;;13.48;;
72422;SDS011;60413;55.658;37.498;2022-12-29T17:40:36;54.10;;;16.25;;
72422;SDS011;60413;55.658;37.498;2022-12-29T17:43:05;55.17;;;13.55;;
72422;SDS011;60413;55.658;37.498;2022-12-29T17:45:37;62.70;;;16.13;;
72422;SDS011;60413;55.658;37.498;2022-12-29T17:48:46;64.57;;;15.82;;
72422;SDS011;60413;55.658;37.498;2022-12-29T17:51:15;40.92;;;11.70;;
72422;SDS011;60413;55.658;37.498;2022-12-29T17:53:42;53.67;;;12.73;;
72422;SDS011;60413;55.658;37.498;2022-12-29T17:56:08;56.75;;;14.65;;
72422;SDS011;60413;55.658;37.498;2022-12-29T17:58:39;50.33;;;15.18;;
72422;SDS011;60413;55.658;37.498;2022-12-29T18:01:10;55.55;;;14.50;;
72422;SDS011;60413;55.658;37.498;2022-12-29T18:03:45;46.65;;;13.55;;
72422;SDS011;60413;55.658;37.498;2022-12-29T18:06:16;67.55;;;16.83;;
72422;SDS011;60413;55.658;37.498;2022-12-29T18:08:48;64.72;;;14.15;;
72422;SDS011;60413;55.658;37.498;2022-12-29T18:11:33;46.10;;;13.70;;
72422;SDS011;60413;55.658;37.498;2022-12-29T18:14:12;58.80;;;16.23;;
72422;SDS011;60413;55.658;37.498;2022-12-29T18:16:40;35.60;;;10.65;;